Time;durP1;ratioP1;P1;durP2;ratioP2;P2;SDS_P1;SDS_P2;PMS_P1;PMS_P2;Temp;Humidity;BMP_temperature;BMP_pressure;BME280_temperature;BME280_humidity;BME280_pressure;Samples;Min_cycle;Max_cycle;Signal;HPM_P1;HPM_P2
2023/05/01 00:01:39;;;;;;;11.20;5.85;;;8.80;1.00;;;;;;5011447;28;20042;-53
2023/05/01 00:04:04;;;;;;;11.75;5.80;;;8.80;1.00;;;;;;5002912;28;20088;-56
2023/05/01 00:06:32;;;;;;;13.00;6.63;;;8.60;1.00;;;;;;5008475;28;20072;-56
2023/05/01 00:08:58;;;;;;;11.57;6.25;;;8.80;1.00;;;;;;5010623;28;20045;-55
2023/05/01 00:11:24;;;;;;;13.32;5.60;;;;;;;;;;5011420;28;20040;-53
2023/05/01 00:13:50;;;;;;;8.55;5.45;;;8.70;1.00;;;;;;5009883;28;20092;-55
2023/05/01 00:16:16;;;;;;;11.35;6.07;;;8.70;1.00;;;;;;5009763;28;20057;-55
2023/05/01 00:18:42;;;;;;;10.25;5.88;;;;;;;;;;5010457;28;20060;-56
2023/05/01 00:21:08;;;;;;;10.43;5.85;;;8.60;1.00;;;;;;5010011;28;20135;-55
2023/05/01 00:23:34;;;;;;;12.10;5.65;;;8.90;1.00;;;;;;5004830;28;20473;-54
2023/05/01 00:25:59;;;;;;;13.07;5.60;;;8.60;1.00;;;;;;5005969;28;20077;-56
2023/05/01 00:28:25;;;;;;;11.15;5.72;;;8.60;1.00;;;;;;5008173;28;20068;-56
2023/05/01 00:30:51;;;;;;;11.02;6.07;;;8.40;1.00;;;;;;5010309;28;20073;-54
2023/05/01 00:33:17;;;;;;;17.55;7.00;;;8.30;1.00;;;;;;5003275;28;20065;-55
2023/05/01 00:35:43;;;;;;;12.70;6.32;;;8.80;1.00;;;;;;5004218;28;20046;-56
2023/05/01 00:38:09;;;;;;;10.50;6.07;;;8.30;1.00;;;;;;5009895;28;20433;-54
2023/05/01 00:40:41;;;;;;;14.18;6.03;;;;;;;;;;5010013;28;20072;-54
2023/05/01 00:43:07;;;;;;;10.25;5.10;;;8.70;1.00;;;;;;5009620;28;20049;-55
2023/05/01 00:45:32;;;;;;;15.43;6.45;;;8.30;1.00;;;;;;5004234;28;20042;-57
2023/05/01 00:47:59;;;;;;;11.15;6.03;;;8.20;1.00;;;;;;5009578;28;20058;-55
2023/05/01 00:50:24;;;;;;;8.43;4.93;;;8.30;1.00;;;;;;5010258;28;20038;-54
2023/05/01 00:52:50;;;;;;;11.80;6.35;;;8.60;1.00;;;;;;5010319;28;20116;-57
2023/05/01 00:55:16;;;;;;;12.27;5.88;;;8.40;1.00;;;;;;5009468;28;20125;-57
2023/05/01 00:57:41;;;;;;;10.82;6.10;;;8.30;1.00;;;;;;5009914;28;20125;-57
2023/05/01 01:00:07;;;;;;;10.23;6.03;;;8.00;1.00;;;;;;5007806;28;20049;-53
2023/05/01 01:02:34;;;;;;;10.10;6.07;;;;;;;;;;5008112;28;20061;-55
2023/05/01 01:04:59;;;;;;;9.30;5.30;;;;;;;;;;5005061;28;20081;-55
2023/05/01 01:07:46;;;;;;;10.95;5.38;;;;;;;;;;5009808;28;20073;-55
2023/05/01 01:10:11;;;;;;;9.43;5.30;;;8.10;1.00;;;;;;5006228;28;20046;-57
2023/05/01 01:12:58;;;;;;;9.60;5.80;;;;;;;;;;5010180;28;20414;-57
2023/05/01 01:15:48;;;;;;;13.93;5.90;;;8.30;1.00;;;;;;5008632;28;20064;-57
2023/05/01 01:18:34;;;;;;;10.38;5.32;;;7.50;1.00;;;;;;5006576;28;20038;-54
2023/05/01 01:21:05;;;;;;;9.18;5.20;;;;;;;;;;5006952;28;20053;-57
2023/05/01 01:23:52;;;;;;;9.38;5.50;;;8.10;1.00;;;;;;5009666;28;20046;-57
2023/05/01 01:26:37;;;;;;;9.48;4.97;;;8.20;1.00;;;;;;5008562;28;20037;-56
2023/05/01 01:29:40;;;;;;;9.15;5.00;;;8.20;1.00;;;;;;5009198;28;20088;-56
2023/05/01 01:32:43;;;;;;;11.63;5.63;;;7.60;1.00;;;;;;4997477;28;20050;-56
2023/05/01 01:35:19;;;;;;;10.25;5.28;;;;;;;;;;5005243;28;20041;-57
2023/05/01 01:38:03;;;;;;;10.13;5.72;;;7.60;1.00;;;;;;5008169;28;20078;-57
2023/05/01 01:40:33;;;;;;;9.38;5.47;;;;;;;;;;5004164;28;20045;-57
2023/05/01 01:43:02;;;;;;;9.88;4.65;;;;;;;;;;4988934;28;20124;-57
2023/05/01 01:45:38;;;;;;;9.50;4.95;;;7.90;12.40;;;;;;5009665;28;20033;-56
2023/05/01 01:48:05;;;;;;;10.75;5.28;;;;;;;;;;5004656;28;20041;-56
2023/05/01 01:50:32;;;;;;;10.90;5.60;;;7.20;25.60;;;;;;5007913;28;20127;-57
2023/05/01 01:53:01;;;;;;;11.38;4.95;;;;;;;;;;5008839;28;20038;-56
2023/05/01 01:55:29;;;;;;;11.18;5.47;;;;;;;;;;5009537;28;20070;-56
2023/05/01 01:57:55;;;;;;;10.43;5.82;;;;;;;;;;4991620;28;20045;-56
2023/05/01 02:00:22;;;;;;;9.07;5.15;;;7.10;19.80;;;;;;5008921;28;20038;-57
2023/05/01 02:02:48;;;;;;;11.23;5.68;;;7.60;38.10;;;;;;5007744;28;20407;-56
2023/05/01 02:05:15;;;;;;;10.60;5.63;;;7.50;39.00;;;;;;5001552;28;20514;-54
2023/05/01 02:07:42;;;;;;;8.75;5.45;;;;;;;;;;4991872;28;20046;-57
2023/05/01 02:10:12;;;;;;;10.60;5.18;;;8.10;2.20;;;;;;5007103;28;20436;-57
2023/05/01 02:12:39;;;;;;;10.23;5.72;;;8.20;18.40;;;;;;5009116;28;20534;-52
2023/05/01 02:15:06;;;;;;;9.90;5.10;;;;;;;;;;5008716;28;20038;-53
2023/05/01 02:17:33;;;;;;;11.68;5.30;;;7.20;26.30;;;;;;5004609;28;20125;-56
2023/05/01 02:20:00;;;;;;;12.95;5.95;;;;;;;;;;5004902;28;20042;-56
2023/05/01 02:22:26;;;;;;;10.02;5.20;;;;;;;;;;5008101;28;20044;-55
2023/05/01 02:24:54;;;;;;;8.68;5.30;;;7.70;4.80;;;;;;5009256;28;20096;-54
2023/05/01 02:27:23;;;;;;;9.85;5.13;;;;;;;;;;5007461;28;20095;-56
2023/05/01 02:29:51;;;;;;;10.05;5.43;;;;;;;;;;5007509;28;20092;-57
2023/05/01 02:32:17;;;;;;;9.90;4.72;;;7.60;11.50;;;;;;5007163;28;20635;-56
2023/05/01 02:34:42;;;;;;;10.85;5.93;;;7.60;21.40;;;;;;5009009;28;20042;-54
2023/05/01 02:37:10;;;;;;;11.07;5.47;;;7.10;1.00;;;;;;5006757;28;20352;-55
2023/05/01 02:39:36;;;;;;;8.10;5.10;;;8.20;8.70;;;;;;5002227;28;20122;-56
2023/05/01 02:42:04;;;;;;;9.60;5.05;;;;;;;;;;5008425;28;20046;-55
2023/05/01 02:44:38;;;;;;;13.10;6.18;;;;;;;;;;5009418;28;20049;-56
2023/05/01 02:47:05;;;;;;;10.45;5.53;;;;;;;;;;5007898;28;20053;-56
2023/05/01 02:49:33;;;;;;;10.77;5.57;;;;;;;;;;5008944;28;20401;-55
2023/05/01 02:51:59;;;;;;;9.45;5.15;;;7.50;20.30;;;;;;5011374;28;20033;-56
2023/05/01 02:54:26;;;;;;;10.77;5.07;;;;;;;;;;4994512;28;20052;-55
2023/05/01 02:56:52;;;;;;;8.57;4.88;;;;;;;;;;5012601;28;20056;-55
2023/05/01 02:59:18;;;;;;;12.40;5.10;;;;;;;;;;5011889;28;20808;-55
2023/05/01 03:01:44;;;;;;;9.77;4.60;;;;;;;;;;5012634;28;20038;-56
2023/05/01 03:04:10;;;;;;;8.38;4.78;;;;;;;;;;5012233;28;20042;-53
2023/05/01 03:06:36;;;;;;;7.93;4.60;;;6.70;4.70;;;;;;5012237;28;20052;-57
2023/05/01 03:09:02;;;;;;;15.00;5.68;;;7.30;2.40;;;;;;5003340;28;20042;-58
2023/05/01 03:11:27;;;;;;;10.65;5.03;;;7.30;16.20;;;;;;5011693;28;20034;-57
2023/05/01 03:13:53;;;;;;;11.43;5.53;;;7.40;4.40;;;;;;5010795;28;20038;-57
2023/05/01 03:16:19;;;;;;;11.05;6.28;;;7.00;9.00;;;;;;5011770;28;20038;-54
2023/05/01 03:18:45;;;;;;;10.48;4.90;;;;;;;;;;5011195;28;20076;-52
2023/05/01 03:21:11;;;;;;;11.73;5.50;;;7.10;8.50;;;;;;5008533;28;20034;-56
2023/05/01 03:23:37;;;;;;;10.70;4.72;;;7.10;17.30;;;;;;5012279;28;20037;-55
2023/05/01 03:26:02;;;;;;;13.43;5.68;;;7.00;14.70;;;;;;5010323;28;20037;-55
2023/05/01 03:28:28;;;;;;;10.50;5.32;;;7.70;24.50;;;;;;4993577;28;20048;-55
2023/05/01 03:30:54;;;;;;;8.18;5.05;;;;;;;;;;5011854;28;20048;-56
2023/05/01 03:33:20;;;;;;;12.90;5.40;;;;;;;;;;5010702;28;20116;-55
2023/05/01 03:35:46;;;;;;;10.35;5.63;;;7.00;23.80;;;;;;5011766;28;20038;-54
2023/05/01 03:38:12;;;;;;;14.90;5.72;;;;;;;;;;5009596;28;20034;-54
2023/05/01 03:40:38;;;;;;;10.57;5.30;;;;;;;;;;5007911;28;20057;-57
2023/05/01 03:43:04;;;;;;;12.00;5.18;;;6.80;27.80;;;;;;5008352;28;20104;-55
2023/05/01 03:45:29;;;;;;;11.30;5.55;;;7.00;31.50;;;;;;5011165;28;20044;-55
2023/05/01 03:47:56;;;;;;;10.52;4.72;;;7.00;31.30;;;;;;5010559;28;20116;-57
2023/05/01 03:50:21;;;;;;;8.50;5.13;;;7.00;26.30;;;;;;5010457;28;20574;-55
2023/05/01 03:52:47;;;;;;;9.50;5.30;;;;;;;;;;5010894;28;20041;-58
2023/05/01 03:55:13;;;;;;;10.77;5.38;;;6.90;28.00;;;;;;5010329;28;20053;-55
2023/05/01 03:57:39;;;;;;;9.25;5.07;;;7.00;58.40;;;;;;5011110;28;20088;-54
2023/05/01 04:00:06;;;;;;;9.90;5.15;;;7.00;52.20;;;;;;5009845;28;20088;-55
2023/05/01 04:02:32;;;;;;;10.95;5.00;;;;;;;;;;5006301;28;20052;-56
2023/05/01 04:04:57;;;;;;;10.60;5.90;;;6.90;58.80;;;;;;5006376;28;20037;-55
2023/05/01 04:07:24;;;;;;;9.85;4.97;;;;;;;;;;5008172;28;20384;-53
2023/05/01 04:09:49;;;;;;;13.57;6.18;;;6.70;66.80;;;;;;5009824;28;20042;-55
2023/05/01 04:12:15;;;;;;;14.23;5.90;;;6.90;79.00;;;;;;5008653;28;20109;-54
2023/05/01 04:14:42;;;;;;;9.40;5.50;;;6.80;85.10;;;;;;5004783;28;20101;-57
2023/05/01 04:17:07;;;;;;;12.18;5.97;;;6.90;73.60;;;;;;5007164;28;20503;-55
2023/05/01 04:19:33;;;;;;;12.27;5.50;;;6.80;95.70;;;;;;5011273;28;20042;-55
2023/05/01 04:22:00;;;;;;;11.38;5.45;;;6.90;88.60;;;;;;5009476;28;20049;-56
2023/05/01 04:24:25;;;;;;;12.02;5.82;;;6.90;94.20;;;;;;5008181;28;20626;-55
2023/05/01 04:26:51;;;;;;;10.75;5.22;;;6.90;96.70;;;;;;5005407;28;20054;-57
2023/05/01 04:29:17;;;;;;;11.38;5.47;;;7.00;93.50;;;;;;5009727;28;20151;-53
2023/05/01 04:31:42;;;;;;;13.40;5.80;;;6.80;96.30;;;;;;5010827;28;20038;-56
2023/05/01 04:34:08;;;;;;;11.23;6.13;;;6.80;96.00;;;;;;5010397;28;20057;-56
2023/05/01 04:36:34;;;;;;;9.27;5.18;;;6.70;99.90;;;;;;5006924;28;20074;-57
2023/05/01 04:38:59;;;;;;;10.93;5.53;;;6.90;99.90;;;;;;5009426;28;20049;-57
2023/05/01 04:41:25;;;;;;;9.65;5.43;;;;;;;;;;5010138;28;20038;-56
2023/05/01 04:43:51;;;;;;;8.90;5.03;;;6.80;99.90;;;;;;5010249;28;20042;-55
2023/05/01 04:46:17;;;;;;;10.05;5.65;;;6.80;99.90;;;;;;5008621;28;20037;-57
2023/05/01 04:48:43;;;;;;;11.52;6.13;;;7.10;99.90;;;;;;5009673;28;20132;-57
2023/05/01 04:51:08;;;;;;;11.50;5.97;;;;;;;;;;5001493;28;20041;-52
2023/05/01 04:53:35;;;;;;;11.50;5.55;;;7.10;99.90;;;;;;5002049;28;20038;-56
2023/05/01 04:56:01;;;;;;;11.50;5.75;;;7.10;99.90;;;;;;5004574;28;20095;-55
2023/05/01 04:58:26;;;;;;;11.18;5.72;;;7.00;99.90;;;;;;5009767;28;20400;-52
2023/05/01 05:00:52;;;;;;;11.10;6.18;;;7.30;99.90;;;;;;5009208;28;20145;-55
2023/05/01 05:03:18;;;;;;;9.63;5.78;;;7.40;99.90;;;;;;4997077;28;20041;-56
2023/05/01 05:05:45;;;;;;;9.77;6.50;;;7.30;99.90;;;;;;4997299;28;20046;-56
2023/05/01 05:08:11;;;;;;;11.57;6.10;;;7.40;99.90;;;;;;5002209;28;20034;-57
2023/05/01 05:10:36;;;;;;;12.45;6.20;;;7.40;99.90;;;;;;5001442;28;20050;-55
2023/05/01 05:13:02;;;;;;;12.70;6.78;;;8.20;99.90;;;;;;5008693;28;20045;-56
2023/05/01 05:15:27;;;;;;;12.25;6.00;;;7.50;99.90;;;;;;5009410;28;20404;-55
2023/05/01 05:17:53;;;;;;;12.18;7.20;;;7.50;99.90;;;;;;5010107;28;20038;-54
2023/05/01 05:20:18;;;;;;;13.43;7.07;;;7.10;99.90;;;;;;5009545;28;20453;-56
2023/05/01 05:22:44;;;;;;;11.60;5.63;;;7.60;99.90;;;;;;5009756;28;20057;-56
2023/05/01 05:25:10;;;;;;;11.95;6.00;;;8.10;99.90;;;;;;5009020;28;20132;-55
2023/05/01 05:27:36;;;;;;;9.98;5.30;;;7.50;99.90;;;;;;5008780;28;20069;-56
2023/05/01 05:30:04;;;;;;;12.35;6.32;;;;;;;;;;5007894;28;20041;-56
2023/05/01 05:32:30;;;;;;;11.70;5.85;;;8.00;99.90;;;;;;5009145;28;20424;-57
2023/05/01 05:34:56;;;;;;;11.30;6.10;;;7.20;98.80;;;;;;5008757;28;20044;-57
2023/05/01 05:37:23;;;;;;;14.48;5.85;;;7.80;99.90;;;;;;5007826;28;20092;-57
2023/05/01 05:39:48;;;;;;;10.95;5.18;;;8.30;94.80;;;;;;5009703;28;20048;-57
2023/05/01 05:42:14;;;;;;;11.63;5.43;;;7.90;96.20;;;;;;5009428;28;20033;-58
2023/05/01 05:44:40;;;;;;;12.18;6.68;;;7.90;99.40;;;;;;5010141;28;20045;-57
2023/05/01 05:47:05;;;;;;;12.20;5.95;;;7.90;99.90;;;;;;5009711;28;20119;-55
2023/05/01 05:49:31;;;;;;;12.05;5.95;;;7.70;99.90;;;;;;5009556;28;20340;-52
2023/05/01 05:51:57;;;;;;;8.55;5.20;;;8.20;99.90;;;;;;5009676;28;20388;-54
2023/05/01 05:54:22;;;;;;;11.80;5.95;;;7.90;92.30;;;;;;5009172;28;20388;-56
2023/05/01 05:56:48;;;;;;;9.25;5.07;;;8.30;82.10;;;;;;5009553;28;20033;-55
2023/05/01 05:59:14;;;;;;;12.00;5.50;;;8.40;60.30;;;;;;5009180;28;20085;-56
2023/05/01 06:01:41;;;;;;;11.80;5.30;;;8.50;46.30;;;;;;5009518;28;20069;-56
2023/05/01 06:04:07;;;;;;;9.55;5.53;;;8.60;38.20;;;;;;5009675;28;20620;-52
2023/05/01 06:06:33;;;;;;;11.73;5.45;;;;;;;;;;5008875;28;20116;-56
2023/05/01 06:09:00;;;;;;;11.05;5.57;;;8.40;40.10;;;;;;5009185;28;20116;-55
2023/05/01 06:11:26;;;;;;;10.57;6.18;;;8.50;45.50;;;;;;5007907;28;20042;-55
2023/05/01 06:13:52;;;;;;;11.07;5.55;;;8.70;54.00;;;;;;5009682;28;20038;-57
2023/05/01 06:16:17;;;;;;;8.82;5.32;;;8.50;47.60;;;;;;5008835;28;20419;-54
2023/05/01 06:18:43;;;;;;;9.45;5.47;;;8.70;37.80;;;;;;5005525;28;20090;-56
2023/05/01 06:21:09;;;;;;;11.38;5.50;;;8.80;37.10;;;;;;5005793;28;20049;-56
2023/05/01 06:23:35;;;;;;;11.35;5.82;;;9.40;14.90;;;;;;5008687;28;20407;-56
2023/05/01 06:26:00;;;;;;;11.90;6.30;;;8.60;38.30;;;;;;5010907;28;20116;-57
2023/05/01 06:28:26;;;;;;;13.27;6.13;;;9.10;9.40;;;;;;5013124;28;20269;-55
2023/05/01 06:30:52;;;;;;;9.38;5.82;;;;;;;;;;5013506;28;20464;-56
2023/05/01 06:33:17;;;;;;;10.63;5.85;;;9.40;4.70;;;;;;5011451;28;20042;-56
2023/05/01 06:35:43;;;;;;;9.27;5.60;;;9.20;1.00;;;;;;5012805;28;20038;-57
2023/05/01 06:38:11;;;;;;;12.48;5.93;;;;;;;;;;5011822;28;20041;-56
2023/05/01 06:40:37;;;;;;;11.02;6.60;;;9.90;1.00;;;;;;5012730;28;20041;-56
2023/05/01 06:43:03;;;;;;;13.45;6.63;;;9.90;1.00;;;;;;5013312;28;20396;-54
2023/05/01 06:45:29;;;;;;;11.88;6.30;;;10.50;1.00;;;;;;4995163;28;20034;-54
2023/05/01 06:47:55;;;;;;;13.30;6.13;;;9.50;1.00;;;;;;5027972;28;20034;-55
2023/05/01 06:50:21;;;;;;;10.40;6.18;;;10.20;1.00;;;;;;5012409;28;20052;-54
2023/05/01 06:52:46;;;;;;;10.30;6.32;;;10.30;1.00;;;;;;5012681;28;20034;-53
2023/05/01 06:55:12;;;;;;;15.75;6.00;;;10.30;1.00;;;;;;5013014;28;20073;-55
2023/05/01 06:57:38;;;;;;;12.90;6.28;;;10.30;1.00;;;;;;5012196;28;20443;-56
2023/05/01 07:00:05;;;;;;;12.18;6.10;;;10.60;1.00;;;;;;5013041;28;20048;-55
2023/05/01 07:02:31;;;;;;;11.90;5.93;;;10.60;1.00;;;;;;5010930;28;20046;-56
2023/05/01 07:04:56;;;;;;;11.68;5.45;;;10.80;1.00;;;;;;5011492;28;20104;-56
2023/05/01 07:07:22;;;;;;;10.68;5.47;;;10.70;1.00;;;;;;4994365;28;20069;-56
2023/05/01 07:09:48;;;;;;;9.65;5.47;;;10.60;99.90;;;;;;5012623;28;20064;-54
2023/05/01 07:12:13;;;;;;;11.10;5.18;;;10.70;99.90;;;;;;5012568;28;20029;-55
2023/05/01 07:14:40;;;;;;;10.60;5.82;;;10.90;99.90;;;;;;4994486;28;20041;-55
2023/05/01 07:17:06;;;;;;;13.32;5.63;;;10.90;99.90;;;;;;5012231;28;20033;-56
2023/05/01 07:19:31;;;;;;;10.02;5.50;;;10.70;99.90;;;;;;5012388;28;20041;-56
2023/05/01 07:21:57;;;;;;;12.25;5.30;;;11.00;99.90;;;;;;5010752;28;20065;-54
2023/05/01 07:24:22;;;;;;;12.00;6.00;;;11.80;99.90;;;;;;5011736;28;20046;-55
2023/05/01 07:26:48;;;;;;;12.20;5.78;;;10.80;99.90;;;;;;5012007;28;20042;-56
2023/05/01 07:29:15;;;;;;;10.77;5.28;;;11.30;99.90;;;;;;5011715;28;20030;-54
2023/05/01 07:31:41;;;;;;;10.43;6.00;;;10.90;99.90;;;;;;5012080;28;20495;-56
2023/05/01 07:34:06;;;;;;;12.00;5.63;;;11.90;99.90;;;;;;5012416;28;20129;-57
2023/05/01 07:36:32;;;;;;;13.23;5.90;;;11.00;99.90;;;;;;5009336;28;20471;-55
2023/05/01 07:38:58;;;;;;;9.20;6.22;;;12.00;99.90;;;;;;5012141;28;20100;-55
2023/05/01 07:41:24;;;;;;;16.25;7.32;;;11.90;99.90;;;;;;5011611;28;20096;-56
2023/05/01 07:43:50;;;;;;;13.13;5.45;;;12.30;99.90;;;;;;5010628;28;20041;-56
2023/05/01 07:46:15;;;;;;;9.73;4.88;;;12.00;99.90;;;;;;5012157;28;20042;-55
2023/05/01 07:48:41;;;;;;;8.80;5.10;;;12.00;99.90;;;;;;5011399;28;20099;-56
2023/05/01 07:51:07;;;;;;;11.38;5.28;;;11.50;99.90;;;;;;5011979;28;20189;-54
2023/05/01 07:53:33;;;;;;;8.90;4.68;;;12.20;99.90;;;;;;5011441;28;20152;-54
2023/05/01 07:56:06;;;;;;;11.80;6.28;;;12.10;99.90;;;;;;5011438;28;20041;-56
2023/05/01 07:58:31;;;;;;;13.38;6.40;;;12.20;99.90;;;;;;5011219;28;20096;-56
2023/05/01 08:00:57;;;;;;;10.35;5.25;;;;;;;;;;5011788;28;20085;-55
2023/05/01 08:03:23;;;;;;;8.77;4.70;;;;;;;;;;5011429;28;20496;-56
2023/05/01 08:05:49;;;;;;;13.13;5.13;;;12.20;99.90;;;;;;5011341;28;20045;-54
2023/05/01 08:08:19;;;;;;;9.32;3.83;;;12.20;99.90;;;;;;5011459;28;20038;-55
2023/05/01 08:10:45;;;;;;;9.02;4.00;;;12.30;99.90;;;;;;5018840;28;20045;-55
2023/05/01 08:13:10;;;;;;;11.55;4.03;;;13.00;99.90;;;;;;5011529;28;20400;-53
2023/05/01 08:15:37;;;;;;;8.85;4.63;;;13.30;99.90;;;;;;5010046;28;20045;-55
2023/05/01 08:18:04;;;;;;;10.45;4.25;;;12.30;99.90;;;;;;4993292;28;20113;-55
2023/05/01 08:20:29;;;;;;;8.73;4.28;;;13.80;99.90;;;;;;5009755;28;20073;-55
2023/05/01 08:22:55;;;;;;;8.20;4.28;;;12.90;99.90;;;;;;5010019;28;20073;-54
2023/05/01 08:25:21;;;;;;;10.32;4.32;;;13.00;99.90;;;;;;5010827;28;20092;-56
2023/05/01 08:27:47;;;;;;;9.05;4.57;;;13.30;99.90;;;;;;5010285;28;20045;-55
2023/05/01 08:30:13;;;;;;;10.70;3.83;;;13.60;99.90;;;;;;5011082;28;20048;-53
2023/05/01 08:32:39;;;;;;;7.30;3.90;;;12.70;99.90;;;;;;5010609;28;20399;-53
2023/05/01 08:35:05;;;;;;;9.40;4.15;;;13.60;99.90;;;;;;5010979;28;20056;-54
2023/05/01 08:37:30;;;;;;;9.45;4.22;;;13.30;99.90;;;;;;5010385;28;20519;-56
2023/05/01 08:39:56;;;;;;;9.68;3.85;;;13.00;99.90;;;;;;5011261;28;20041;-55
2023/05/01 08:42:22;;;;;;;8.80;3.80;;;14.00;98.90;;;;;;5009253;28;20175;-55
2023/05/01 08:44:49;;;;;;;10.02;4.10;;;13.60;97.60;;;;;;5011064;28;20041;-53
2023/05/01 08:47:17;;;;;;;9.52;4.13;;;13.10;84.70;;;;;;5010529;28;20495;-56
2023/05/01 08:49:44;;;;;;;9.95;3.95;;;13.30;76.70;;;;;;5009328;28;20042;-56
2023/05/01 08:52:14;;;;;;;8.90;4.35;;;14.30;83.00;;;;;;5009113;28;20395;-55
2023/05/01 08:54:45;;;;;;;7.72;3.80;;;14.20;85.80;;;;;;5010681;28;20054;-56
2023/05/01 08:57:12;;;;;;;9.18;3.67;;;13.70;67.60;;;;;;5010703;28;20045;-55
2023/05/01 08:59:39;;;;;;;8.48;2.78;;;13.70;50.90;;;;;;5010523;28;20328;-54
2023/05/01 09:02:06;;;;;;;7.10;3.13;;;14.10;1.00;;;;;;5009452;28;20042;-56
2023/05/01 09:04:34;;;;;;;7.63;3.33;;;14.10;1.00;;;;;;5010309;28;20503;-57
2023/05/01 09:07:00;;;;;;;8.10;3.50;;;14.30;1.00;;;;;;5010301;28;20494;-56
2023/05/01 09:09:30;;;;;;;9.52;3.63;;;14.40;1.00;;;;;;5010201;28;20045;-56
2023/05/01 09:12:16;;;;;;;10.93;3.38;;;14.30;1.00;;;;;;5010548;28;20049;-56
2023/05/01 09:14:41;;;;;;;9.43;3.58;;;14.60;1.00;;;;;;5009309;28;20112;-57
2023/05/01 09:17:07;;;;;;;12.07;3.88;;;14.60;1.00;;;;;;5010231;28;20491;-54
2023/05/01 09:19:33;;;;;;;6.78;3.75;;;15.50;1.00;;;;;;5009041;28;20380;-56
2023/05/01 09:21:58;;;;;;;7.38;3.92;;;14.90;1.00;;;;;;5010370;28;20279;-54
2023/05/01 09:24:24;;;;;;;7.53;2.88;;;15.10;1.00;;;;;;5010191;28;20125;-56
2023/05/01 09:26:51;;;;;;;12.48;3.97;;;15.00;1.00;;;;;;5008969;28;20403;-56
2023/05/01 09:29:36;;;;;;;9.57;3.28;;;16.10;1.00;;;;;;5010674;28;20042;-56
2023/05/01 09:32:20;;;;;;;8.40;3.88;;;16.20;1.00;;;;;;5008921;28;20154;-56
2023/05/01 09:34:48;;;;;;;6.35;2.80;;;16.20;1.00;;;;;;5010309;28;20112;-56
2023/05/01 09:37:28;;;;;;;6.25;2.63;;;15.30;1.00;;;;;;5009878;28;20029;-53
2023/05/01 09:40:09;;;;;;;7.93;3.15;;;15.50;1.00;;;;;;5003032;28;20070;-57
2023/05/01 09:42:49;;;;;;;7.07;3.00;;;16.60;1.00;;;;;;5006785;28;20084;-55
2023/05/01 09:45:15;;;;;;;8.15;2.92;;;16.30;1.00;;;;;;5010431;28;20371;-57
2023/05/01 09:47:42;;;;;;;6.65;2.88;;;16.60;1.00;;;;;;5009627;28;20049;-56
2023/05/01 09:50:08;;;;;;;6.68;3.47;;;16.60;1.00;;;;;;5008889;28;20517;-57
2023/05/01 09:52:34;;;;;;;7.22;2.70;;;16.00;1.00;;;;;;5009101;28;20041;-55
2023/05/01 09:55:17;;;;;;;6.40;2.80;;;16.70;1.00;;;;;;5010452;28;20050;-57
2023/05/01 09:57:45;;;;;;;7.20;2.70;;;16.30;1.00;;;;;;5007827;28;20503;-54
2023/05/01 10:00:14;;;;;;;8.48;2.45;;;16.40;1.00;;;;;;4992467;28;20038;-54
2023/05/01 10:02:43;;;;;;;7.57;3.08;;;17.10;1.00;;;;;;5008215;28;20066;-56
2023/05/01 10:05:09;;;;;;;7.25;2.58;;;17.00;1.00;;;;;;5009912;28;20041;-57
2023/05/01 10:07:35;;;;;;;9.32;2.50;;;16.60;1.00;;;;;;5009370;28;20046;-54
2023/05/01 10:10:18;;;;;;;7.43;2.45;;;17.40;1.00;;;;;;5008688;28;20076;-56
2023/05/01 10:12:44;;;;;;;5.22;2.50;;;17.30;1.00;;;;;;5009284;28;20030;-56
2023/05/01 10:15:10;;;;;;;7.95;2.97;;;17.30;1.00;;;;;;5008762;28;20052;-54
2023/05/01 10:17:38;;;;;;;7.25;2.67;;;17.50;1.00;;;;;;5009019;28;20037;-55
2023/05/01 10:20:05;;;;;;;6.05;2.28;;;17.20;1.00;;;;;;5008765;28;20398;-56
2023/05/01 10:22:31;;;;;;;6.50;1.92;;;17.80;1.00;;;;;;4991833;28;20050;-57
2023/05/01 10:24:58;;;;;;;6.15;2.20;;;17.60;1.00;;;;;;5009723;28;20038;-55
2023/05/01 10:27:25;;;;;;;5.28;2.10;;;17.00;1.00;;;;;;5007769;28;20045;-57
2023/05/01 10:29:54;;;;;;;6.10;2.17;;;17.10;1.00;;;;;;5009681;28;20491;-57
2023/05/01 10:32:20;;;;;;;10.15;2.70;;;17.40;1.00;;;;;;5008531;28;20073;-56
2023/05/01 10:34:59;;;;;;;8.00;2.75;;;18.60;1.00;;;;;;5009497;28;20038;-56
2023/05/01 10:37:37;;;;;;;10.68;3.10;;;17.80;1.00;;;;;;5008357;28;20033;-55
2023/05/01 10:40:40;;;;;;;5.30;2.17;;;18.90;1.00;;;;;;5009907;28;20038;-54
2023/05/01 10:43:16;;;;;;;6.75;2.25;;;18.70;1.00;;;;;;5002058;28;20077;-57
2023/05/01 10:45:45;;;;;;;6.68;2.13;;;18.70;1.00;;;;;;5008907;28;20040;-57
2023/05/01 10:48:11;;;;;;;7.38;2.40;;;18.90;1.00;;;;;;5009516;28;20045;-57
2023/05/01 10:51:14;;;;;;;7.22;2.92;;;19.00;1.00;;;;;;5009349;28;20052;-56
2023/05/01 10:53:48;;;;;;;9.05;3.75;;;19.20;1.00;;;;;;5009032;28;20042;-56
2023/05/01 10:56:32;;;;;;;6.75;3.03;;;18.80;1.00;;;;;;5004106;28;20084;-57
2023/05/01 10:58:59;;;;;;;6.28;2.70;;;18.70;1.00;;;;;;5004846;28;20100;-56
2023/05/01 11:01:27;;;;;;;6.03;2.58;;;19.10;1.00;;;;;;5009642;28;20038;-56
2023/05/01 11:04:03;;;;;;;7.00;3.05;;;19.10;1.00;;;;;;5003238;28;20038;-57
2023/05/01 11:06:29;;;;;;;5.70;2.53;;;19.20;1.00;;;;;;5005751;28;20037;-57
2023/05/01 11:08:56;;;;;;;5.85;2.83;;;19.40;1.00;;;;;;5009179;28;20116;-55
2023/05/01 11:11:25;;;;;;;8.43;3.03;;;19.10;1.00;;;;;;5009600;28;20324;-57
2023/05/01 11:14:01;;;;;;;6.00;2.60;;;;;;;;;;5012362;28;20545;-56
2023/05/01 11:16:38;;;;;;;8.75;2.72;;;18.70;1.00;;;;;;5012218;28;20096;-57
2023/05/01 11:19:04;;;;;;;6.05;2.40;;;19.20;1.00;;;;;;5013342;28;20045;-56
2023/05/01 11:21:35;;;;;;;6.63;2.15;;;17.80;1.00;;;;;;5010865;28;20049;-58
2023/05/01 11:24:02;;;;;;;8.68;2.92;;;18.20;1.00;;;;;;5012533;28;20491;-55
2023/05/01 11:26:28;;;;;;;5.28;2.28;;;19.00;1.00;;;;;;5012589;28;20042;-56
2023/05/01 11:28:57;;;;;;;5.88;2.97;;;17.70;1.00;;;;;;5011695;28;20034;-54
2023/05/01 11:31:24;;;;;;;6.50;2.80;;;18.10;1.00;;;;;;5012327;28;20042;-55
2023/05/01 11:33:50;;;;;;;6.28;2.63;;;17.70;1.00;;;;;;5012170;28;20100;-56
2023/05/01 11:36:15;;;;;;;6.40;2.45;;;17.50;1.00;;;;;;5010957;28;20045;-56
2023/05/01 11:38:52;;;;;;;7.95;2.72;;;17.70;1.00;;;;;;5011806;28;20464;-56
2023/05/01 11:41:20;;;;;;;9.77;2.90;;;17.80;1.00;;;;;;5012788;28;20042;-56
2023/05/01 11:43:50;;;;;;;7.25;2.70;;;17.20;1.00;;;;;;5010423;28;20145;-56
2023/05/01 11:46:27;;;;;;;6.28;2.70;;;17.80;1.00;;;;;;5012361;28;20041;-56
2023/05/01 11:48:57;;;;;;;7.88;2.92;;;17.30;1.00;;;;;;5011716;28;20038;-55
2023/05/01 11:51:23;;;;;;;5.85;2.83;;;17.40;1.00;;;;;;5012326;28;20033;-56
2023/05/01 11:54:12;;;;;;;7.60;3.42;;;17.10;1.00;;;;;;5010191;28;20514;-56
2023/05/01 11:56:39;;;;;;;10.55;3.17;;;16.80;1.00;;;;;;5011595;28;20122;-57
2023/05/01 11:59:15;;;;;;;7.50;3.22;;;16.40;1.00;;;;;;5011124;28;20393;-55
2023/05/01 12:01:43;;;;;;;9.32;3.30;;;17.20;1.00;;;;;;5011604;28;20080;-56
2023/05/01 12:04:10;;;;;;;6.47;3.08;;;17.00;1.00;;;;;;5011815;28;20042;-55
2023/05/01 12:06:43;;;;;;;7.13;3.40;;;17.00;1.00;;;;;;5011177;28;20049;-55
2023/05/01 12:09:16;;;;;;;10.33;4.43;;;16.70;1.00;;;;;;5010822;28;20053;-54
2023/05/01 12:11:42;;;;;;;11.30;4.50;;;17.50;1.00;;;;;;5011175;28;20044;-57
2023/05/01 12:14:08;;;;;;;7.85;4.60;;;16.80;1.00;;;;;;5011727;28;20034;-57
2023/05/01 12:16:35;;;;;;;13.40;4.93;;;16.60;1.00;;;;;;5010630;28;20159;-56
2023/05/01 12:19:01;;;;;;;10.50;5.28;;;16.20;1.00;;;;;;5010517;28;20494;-54
2023/05/01 12:21:27;;;;;;;11.38;5.05;;;17.10;1.00;;;;;;5010877;28;20068;-57
2023/05/01 12:23:53;;;;;;;8.77;4.70;;;16.40;1.00;;;;;;5009294;28;20080;-56
2023/05/01 12:26:24;;;;;;;12.15;6.00;;;17.00;1.00;;;;;;5010122;28;20068;-56
2023/05/01 12:28:57;;;;;;;9.82;5.13;;;16.80;1.00;;;;;;5009160;28;20042;-56
2023/05/01 12:31:24;;;;;;;11.45;5.93;;;16.60;1.00;;;;;;5011055;28;20048;-58
2023/05/01 12:33:57;;;;;;;11.90;6.05;;;16.80;1.00;;;;;;5010695;28;20372;-53
2023/05/01 12:36:24;;;;;;;10.65;5.90;;;16.70;1.00;;;;;;5011060;28;20049;-58
2023/05/01 12:39:01;;;;;;;10.57;5.97;;;17.00;1.00;;;;;;5009580;28;20046;-56
2023/05/01 12:41:44;;;;;;;10.15;5.95;;;16.90;1.00;;;;;;5010996;28;20038;-56
2023/05/01 12:44:19;;;;;;;11.07;6.30;;;17.20;1.00;;;;;;5011143;28;20041;-56
2023/05/01 12:46:53;;;;;;;12.20;6.68;;;16.50;1.00;;;;;;5010402;28;20107;-55
2023/05/01 12:49:20;;;;;;;11.45;6.47;;;16.70;1.00;;;;;;5009640;28;20046;-55
2023/05/01 12:51:50;;;;;;;13.40;6.43;;;16.90;1.00;;;;;;5010208;28;20484;-55
2023/05/01 12:54:26;;;;;;;13.55;7.22;;;16.40;1.00;;;;;;5010523;28;20041;-56
2023/05/01 12:56:52;;;;;;;11.65;6.00;;;16.90;1.00;;;;;;5010395;28;20053;-56
2023/05/01 12:59:25;;;;;;;11.40;5.85;;;16.70;1.00;;;;;;5009651;28;20052;-57
2023/05/01 13:02:05;;;;;;;12.93;7.00;;;16.90;1.00;;;;;;5008990;28;20097;-57
2023/05/01 13:04:31;;;;;;;12.15;6.63;;;17.00;1.00;;;;;;5010634;28;20554;-57
2023/05/01 13:06:57;;;;;;;12.80;6.90;;;17.00;1.00;;;;;;4992630;28;20415;-57
2023/05/01 13:09:29;;;;;;;10.48;6.10;;;17.00;1.00;;;;;;5010713;28;20061;-56
2023/05/01 13:11:57;;;;;;;12.98;6.97;;;16.70;1.00;;;;;;5010164;28;20684;-57